Weather observations for the past three days for
Haines Memorial Airport
Imperial (Metric)
Date Time (edt) Wind (mph) Vis. (mi.) Weather Sky Cond. Temperature (ºF) Relative Humidity Wind Chill (°F) Heat Index (°F) Pressure Precipitation (in)
Air Dwpt 6 hour altimeter (in) sea level (mb) 1 hr 3 hr 6 hr
Max. Min.
09 13:55 W 17 G 22 10.00 Partly Cloudy SCT050 66.2 48.2 67.8 52.5 52% 29.64 0.0
09 13:35 W 10 G 23 10.00 A Few Clouds FEW050 66.2 48.2 52% 29.65 0.0
09 13:15 W 12 G 23 10.00 Fair CLR 66.2 48.2 52% 29.64 0.0
09 12:55 SW 13 G 26 10.00 A Few Clouds FEW110 66.2 48.2 52% 29.64 0.0
09 12:35 SW 16 G 24 10.00 Mostly Cloudy BKN110 66.2 48.2 52% 29.64 0.0
09 12:15 W 14 G 28 10.00 Fair CLR 66.2 46.4 49% 29.64 0.0
09 11:55 W 13 G 21 10.00 Fair CLR 66.2 48.2 52% 29.64 0.0
09 11:35 SW 14 G 26 10.00 Fair CLR 64.4 50 60% 29.64 0.0
09 11:15 SW 13 G 22 10.00 A Few Clouds FEW120 62.6 50 64% 29.64 0.0
09 10:55 SW 13 G 18 10.00 A Few Clouds FEW110 62.6 51.8 68% 29.65 0.0
09 10:35 SW 10 G 16 10.00 Fair CLR 60.8 50 68% 29.65 0.0
09 10:15 SW 14 G 23 10.00 A Few Clouds FEW100 59 51.8 77% 29.65 0.0
09 09:55 S 18 10.00 Partly Cloudy FEW014 SCT100 57.2 51.8 82% 29.65 0.0
09 09:35 SW 16 10.00 Mostly Cloudy SCT012 BKN110 57.2 51.8 82% 29.65 0.0
09 09:15 SW 13 G 18 10.00 Mostly Cloudy BKN010 BKN110 55.4 51.8 88% 29.66 0.0
09 08:55 SW 14 G 18 10.00 Mostly Cloudy BKN008 55.4 51.8 88% 29.66 0.0
09 08:35 S 15 10.00 Overcast OVC008 53.6 50 88% 29.67 0.0
09 08:15 SW 10 G 16 10.00 Overcast OVC008 53.6 50 88% 29.67 0.0
09 07:55 S 13 10.00 Overcast OVC008 51.8 50 52.5 46.9 94% 29.67 0.0
09 07:35 SW 13 G 18 10.00 Overcast OVC008 51.8 50 94% 29.68 0.0
09 07:15 SW 12 10.00 Overcast OVC006 51.8 50 94% 29.68 0.0
09 06:55 SW 13 9.00 Overcast OVC006 51.8 50 94% 29.67 0.0
09 06:35 SW 9 7.00 Overcast OVC006 51.8 50 94% 29.68 0.0
09 06:15 SW 13 8.00 Overcast OVC004 51.8 50 94% 29.67 0.0
09 05:55 S 12 6.00 Fog/Mist OVC004 51.8 50 94% 29.67 0.0
09 05:35 S 12 5.00 Fog/Mist OVC004 51.8 50 94% 29.68 0.0
09 05:15 S 9 4.00 Fog/Mist OVC004 50 50 100% 47 29.68 0.0
09 04:55 S 8 5.00 Fog/Mist SCT006 48.2 48.2 100% 45 29.68 0.0
09 04:35 S 7 5.00 Fog/Mist CLR 48.2 48.2 100% 46 29.69 0.0
09 04:15 S 6 4.00 Fog/Mist CLR 46.4 46.4 100% 44 29.7 0.0
09 03:55 SW 3 7.00 Fair CLR 50 48.2 94% 29.7 0.0
09 03:35 S 7 7.00 Fog/Mist CLR 48.2 48.2 100% 46 29.69 0.0
09 03:15 S 5 8.00 Fair CLR 50 48.2 94% 49 29.7 0.0
09 02:55 S 6 10.00 Fair CLR 50 48.2 94% 48 29.7 0.0
09 02:35 S 6 10.00 Fair CLR 50 48.2 94% 48 29.71 0.0
09 02:15 S 5 10.00 Fair CLR 51.8 48.2 88% 29.71 0.0
09 01:55 S 5 10.00 Fair CLR 50 48.2 60.8 49.6 94% 49 29.72 0.0
09 01:35 S 6 10.00 Fair CLR 50 48.2 94% 48 29.73 0.0
09 01:15 SW 5 10.00 Fair CLR 51.8 48.2 88% 29.72 0.0
09 00:55 SW 3 10.00 Fair CLR 51.8 50 94% 29.73 0.0
09 00:35 S 3 10.00 Fair CLR 50 48.2 94% 29.73 0.0
09 00:15 S 5 10.00 Fair CLR 50 48.2 94% 49 29.73 0.0
08 23:55 S 5 10.00 Fair CLR 50 48.2 94% 49 29.74 0.0
08 23:35 S 5 10.00 Fair CLR 53.6 48.2 82% 29.74 0.0
08 23:15 S 3 10.00 Fair CLR 51.8 48.2 88% 29.75 0.0
08 22:55 S 3 10.00 Fair CLR 51.8 48.2 88% 29.75 0.0
08 22:35 E 1 10.00 Fair CLR 53.6 46.4 77% 29.75 0.0
08 22:15 S 1 10.00 Fair CLR 53.6 48.2 82% 29.76 0.0
08 21:55 NW 2 10.00 Fair CLR 57.2 48.2 72% 29.76 0.0
08 21:35 Vrbl 1 10.00 A Few Clouds FEW085 53.6 48.2 82% 29.75 0.0
08 21:15 S 7 10.00 Fair CLR 55.4 48.2 77% 29.74 0.0
08 20:55 S 6 10.00 Fair CLR 55.4 48.2 77% 29.74 0.0
08 20:35 S 6 10.00 Fair CLR 57.2 46.4 67% 29.73 0.0
08 20:15 SW 6 10.00 Fair CLR 59 44.6 59% 29.73 0.0
08 19:55 SW 8 10.00 A Few Clouds FEW075 60.8 46.4 65.7 59.2 59% 29.73 0.0
08 19:35 SW 7 10.00 Mostly Cloudy BKN075 BKN085 59 46.4 63% 29.73 0.0
08 19:15 SW 8 10.00 Mostly Cloudy FEW047 BKN075 BKN085 60.8 46.4 59% 29.73 0.0
08 18:55 SW 10 G 16 10.00 Partly Cloudy SCT047 SCT050 62.6 46.4 56% 29.73 0.0
08 18:35 SW 9 10.00 Fair CLR 62.6 46.4 56% 29.74 0.0
08 18:15 SW 9 10.00 A Few Clouds FEW060 FEW065 FEW090 62.6 46.4 56% 29.74 0.0
08 17:55 SW 9 G 23 10.00 A Few Clouds FEW050 FEW070 FEW090 62.6 44.6 52% 29.74 0.0
08 17:35 S 10 10.00 Partly Cloudy FEW050 FEW070 SCT080 62.6 46.4 56% 29.74 0.0
08 17:15 SW 9 G 20 10.00 Partly Cloudy SCT070 SCT080 62.6 44.6 52% 29.75 0.0
08 16:55 S 14 10.00 Mostly Cloudy FEW060 SCT070 BKN080 62.6 44.6 52% 29.75 0.0
08 16:35 Vrbl 6 10.00 Mostly Cloudy FEW070 BKN085 62.6 42.8 49% 29.75 0.0
08 16:15 SW 12 10.00 Mostly Cloudy BKN070 62.6 39.2 42% 29.76 0.0
08 15:55 Vrbl 6 10.00 Partly Cloudy SCT060 62.6 39.2 42% 29.77 0.0
08 15:35 NW 12 G 17 10.00 Partly Cloudy SCT095 64.4 39.2 40% 29.77 0.0
08 15:15 W 8 10.00 Mostly Cloudy FEW070 BKN095 64.4 41 43% 29.79 0.0
08 14:55 SW 9 10.00 Mostly Cloudy FEW070 BKN095 62.6 37.4 39% 29.79 0.0
08 14:35 W 7 10.00 A Few Clouds FEW095 64.4 41 43% 29.8 0.0
08 14:15 S 8 10.00 Partly Cloudy SCT085 62.6 39.2 42% 29.8 0.0
08 13:55 S 7 10.00 Overcast OVC085 62.6 39.2 63.1 41.2 42% 29.81 0.0
08 13:35 W 6 10.00 Mostly Cloudy BKN085 62.6 37.4 39% 29.83 0.0
08 13:15 SW 9 10.00 A Few Clouds FEW085 60.8 37.4 42% 29.83 0.0
08 12:55 Vrbl 6 10.00 Fair CLR 60.8 42.8 52% 29.84 0.0
08 12:35 S 8 10.00 Partly Cloudy SCT090 59 42.8 55% 29.85 0.0
08 12:15 S 6 10.00 Partly Cloudy SCT090 57.2 41 55% 29.85 0.0
08 11:55 Vrbl 6 10.00 A Few Clouds FEW090 57.2 41 55% 29.86 0.0
08 11:35 S 6 10.00 Mostly Cloudy BKN090 57.2 41 55% 29.86 0.0
08 11:15 S 3 10.00 Mostly Cloudy BKN090 BKN110 55.4 46.4 72% 29.86 0.0
08 10:55 S 5 10.00 Partly Cloudy SCT100 53.6 46.4 77% 29.86 0.0
08 10:35 Vrbl 5 10.00 Mostly Cloudy BKN100 BKN120 51.8 46.4 82% 29.87 0.0
08 10:15 Vrbl 2 10.00 Mostly Cloudy BKN100 50 46.4 88% 29.88 0.0
08 09:55 Vrbl 2 10.00 Mostly Cloudy BKN110 50 46.4 88% 29.88 0.0
08 09:35 Vrbl 3 10.00 Overcast OVC110 48.2 46.4 94% 29.88 0.0
08 09:15 Calm 9.00 Mostly Cloudy BKN100 46.4 44.6 93% 29.88 0.0
08 08:55 Vrbl 1 6.00 Fog/Mist FEW003 FEW120 46.4 44.6 93% 29.88 0.0
08 08:35 SW 3 4.00 Fog/Mist FEW003 SCT120 44.6 44.6 100% 29.89 0.0
08 08:15 SW 5 2.50 Fog/Mist SCT001 42.8 42.8 100% 41 29.88 0.0
08 07:55 S 3 0.75 Fog/Mist BKN001 42.8 41 42.8 35.1 93% 29.87 0.0
08 07:35 SW 3 0.50 Fog VV005 39.2 37.4 93% 29.87 0.0
08 07:15 S 3 0.15 Fog VV000 35.6 35.6 100% 29.86 0.0
08 06:55 Calm 0.15 Fog BKN001 35.6 35.6 100% 29.86 0.0
08 06:35 S 2 0.00 NULL NULL 35.6 35.6 100% 29.86 0.0
08 06:15 SW 3 0.15 Fog VV000 37.4 35.6 93% 29.86 0.0
08 05:55 Calm 0.15 Fog VV000 35.6 35.6 100% 29.86 0.0
08 05:35 Calm 0.15 Fog VV000 37.4 37.4 100% 29.86 0.0
08 05:15 S 1 0.25 Fog VV002 37.4 37.4 100% 29.86 0.0
08 04:55 NW 1 0.25 Fog VV002 39.2 37.4 93% 29.86 0.0
08 04:35 SE 1 0.25 Fog VV002 39.2 39.2 100% 29.86 0.0
08 04:15 E 1 0.50 Fog VV005 39.2 39.2 100% 29.86 0.0
08 03:55 NE 1 3.00 Fog/Mist SCT100 39.2 39.2 100% 29.86 0.0
08 03:35 N 5 1.50 Fog/Mist OVC100 39.2 39.2 100% 36 29.86 0.0
08 03:15 Calm 0.50 Fog OVC100 39.2 39.2 100% 29.86 0.0
08 02:55 E 1 1.25 Fog/Mist CLR 41 41 100% 29.87 0.0
08 02:35 SW 2 5.00 Fog/Mist CLR 41 41 100% 29.87 0.0
08 02:15 SW 2 10.00 A Few Clouds FEW075 41 39.2 93% 29.88 0.0
08 01:55 SW 3 10.00 A Few Clouds FEW075 42.8 41 52.9 41.5 93% 29.88 0.0
08 01:35 SW 5 10.00 Fair CLR 42.8 41 93% 41 29.88 0.0
08 01:15 SW 5 10.00 Fair CLR 42.8 41 93% 41 29.88 0.0
08 00:55 SW 6 10.00 Fair CLR 42.8 41 93% 40 29.88 0.0
08 00:35 S 5 10.00 Fair CLR 42.8 41 93% 41 29.87 0.0
08 00:15 S 7 10.00 Fair CLR 42.8 41 93% 39 29.87 0.0
07 23:55 S 6 10.00 Fair CLR 41 41 100% 38 29.87 0.0
07 23:35 S 3 10.00 Fair CLR 42.8 41 93% 29.87 0.0
07 23:15 S 5 10.00 Fair CLR 42.8 41 93% 41 29.87 0.0
07 22:55 S 5 10.00 A Few Clouds FEW090 42.8 41 93% 41 29.87 0.0
07 22:35 S 3 10.00 Partly Cloudy SCT090 44.6 41 87% 29.87 0.0
07 22:15 S 3 10.00 Fair CLR 44.6 42.8 93% 29.87 0.0
07 21:55 SW 3 10.00 Fair CLR 46.4 42.8 87% 29.87 0.0
07 21:35 SW 6 10.00 Fair CLR 46.4 42.8 87% 44 29.87 0.0
07 21:15 SW 5 10.00 Partly Cloudy FEW070 FEW080 SCT110 46.4 42.8 87% 45 29.87 0.0
07 20:55 S 13 3.00 Light Rain Haze SCT042 BKN070 OVC080 46.4 42.8 87% 41 29.86 0.0
07 20:35 SW 13 10.00 Light Rain BKN044 OVC050 51.8 39.2 62% 29.86 0.0
07 20:15 SW 12 G 16 10.00 Overcast BKN048 BKN060 OVC075 51.8 39.2 62% 29.86 0.0
07 19:55 SW 7 10.00 Overcast BKN050 OVC070 51.8 39.2 58.1 52.9 62% 29.85 0.0
07 19:35 SW 6 G 16 10.00 Overcast SCT050 BKN055 OVC095 53.6 37.4 54% 29.85 0.0
07 19:15 W 7 10.00 Mostly Cloudy BKN095 55.4 35.6 47% 29.85 0.0
07 18:55 W 9 10.00 A Few Clouds FEW060 FEW070 55.4 33.8 44% 29.85 0.0
07 18:35 SW 18 G 23 10.00 Mostly Cloudy BKN060 BKN070 57.2 35.6 44% 29.85 0.0
07 18:15 SW 10 G 18 10.00 Overcast OVC060 55.4 33.8 44% 29.85 0.0
07 17:55 SW 13 10.00 Overcast BKN070 OVC080 55.4 33.8 44% 29.85 0.0
07 17:35 SW 9 10.00 Overcast BKN070 OVC085 55.4 32 41% 29.86 0.0
07 17:15 SW 10 10.00 Overcast BKN070 OVC090 55.4 32 41% 29.86 0.0
07 16:55 W 12 10.00 Mostly Cloudy BKN080 57.2 32 39% 29.87 0.0
07 16:35 W 15 G 24 10.00 A Few Clouds FEW075 FEW090 57.2 32 39% 29.87 0.0
07 16:15 W 14 G 17 10.00 Partly Cloudy SCT075 57.2 32 39% 29.88 0.0
07 15:55 W 14 G 18 10.00 Fair CLR 57.2 32 39% 29.89 0.0
07 15:35 W 12 10.00 Fair CLR 57.2 33.8 41% 29.9 0.0
07 15:15 W 12 G 22 10.00 Fair CLR 55.4 32 41% 29.9 0.0
07 14:55 NW 14 G 21 10.00 Fair CLR 55.4 32 41% 29.91 0.0
07 14:35 W 12 10.00 Fair CLR 55.4 32 41% 29.92 0.0
07 14:15 W 9 G 18 10.00 A Few Clouds FEW065 53.6 32 44% 29.92 0.0
07 13:55 NW 10 10.00 Partly Cloudy SCT065 53.6 32 54.1 41.2 44% 29.93 0.0
07 13:35 N 12 G 18 10.00 Fair CLR 53.6 32 44% 29.93 0.0
07 13:15 NW 10 G 22 10.00 A Few Clouds FEW080 53.6 32 44% 29.94 0.0
07 12:55 NW 10 10.00 Fair CLR 51.8 32 47% 29.96 0.0
07 12:35 NW 7 G 20 10.00 Partly Cloudy SCT075 51.8 30.2 44% 29.96 0.0
07 12:15 NW 17 10.00 Mostly Cloudy BKN075 51.8 32 47% 29.97 0.0
07 11:55 W 20 10.00 Partly Cloudy SCT075 51.8 32 47% 29.97 0.0
07 11:35 NW 9 10.00 Fair CLR 50 32 50% 47 29.96 0.0
07 11:15 NW 12 10.00 Fair CLR 50 32 50% 46 29.96 0.0
07 10:55 NW 12 G 18 10.00 Fair CLR 50 32 50% 46 29.96 0.0
07 10:35 W 9 G 16 10.00 Fair CLR 48.2 32 54% 45 29.96 0.0
07 10:15 W 10 G 17 10.00 Fair CLR 48.2 30.2 50% 44 29.96 0.0
07 09:55 W 9 10.00 Fair CLR 46.4 30.2 53% 42 29.96 0.0
07 09:35 W 14 10.00 Fair CLR 46.4 30.2 53% 41 29.97 0.0
07 09:15 W 9 10.00 Fair CLR 46.4 32 57% 42 29.96 0.0
07 08:55 NW 10 10.00 Fair CLR 44.6 32 61% 40 29.96 0.0
07 08:35 W 14 10.00 Fair CLR 44.6 32 61% 39 29.96 0.0
07 08:15 W 9 10.00 Fair CLR 42.8 32 66% 38 29.96 0.0
07 07:55 W 9 10.00 Fair CLR 41 33.8 44.6 35.4 76% 36 29.96 0.0
07 07:35 W 7 10.00 Fair CLR 39.2 32 75% 35 29.96 0.0
07 07:15 SW 2 10.00 Fair CLR 37.4 30.2 75% 29.95 0.0
07 06:55 Vrbl 1 10.00 Fair CLR 35.6 30.2 81% 29.94 0.0
07 06:35 W 3 10.00 Fair CLR 37.4 30.2 75% 29.94 0.0
07 06:15 W 3 10.00 Fair CLR 37.4 30.2 75% 29.94 0.0
07 05:55 W 3 10.00 Fair CLR 37.4 30.2 75% 29.93 0.0
07 05:35 NW 3 10.00 Fair CLR 37.4 30.2 75% 29.93 0.0
07 05:15 NW 6 10.00 Fair CLR 37.4 30.2 75% 33 29.94 0.0
07 04:55 NW 7 10.00 Fair CLR 39.2 30.2 70% 35 29.93 0.0
07 04:35 NW 8 10.00 Fair CLR 39.2 30.2 70% 34 29.93 0.0
07 04:15 NW 8 10.00 Fair CLR 41 30.2 66% 36 29.94 0.0
07 03:55 NW 9 10.00 Fair CLR 41 32 70% 36 29.93 0.0
07 03:35 NW 9 10.00 Fair CLR 42.8 32 66% 38 29.93 0.0
07 03:15 W 9 10.00 Partly Cloudy SCT070 42.8 32 66% 38 29.93 0.0
07 02:55 W 8 10.00 Overcast OVC070 42.8 32 66% 39 29.93 0.0
07 02:35 W 12 10.00 Overcast OVC070 44.6 32 61% 39 29.93 0.0
07 02:15 W 9 10.00 Overcast OVC070 44.6 33.8 66% 40 29.93 0.0
07 01:55 W 10 10.00 Overcast OVC070 44.6 33.8 50.7 41.7 66% 40 29.94 0.0
07 01:35 W 8 10.00 Overcast OVC080 42.8 33.8 71% 39 29.94 0.0
07 01:15 W 8 10.00 Mostly Cloudy BKN080 42.8 33.8 71% 39 29.94 0.0
07 00:55 W 7 10.00 Mostly Cloudy BKN080 42.8 32 66% 39 29.94 0.0
07 00:35 W 5 10.00 Mostly Cloudy BKN080 42.8 33.8 71% 41 29.93 0.0
07 00:15 W 5 10.00 A Few Clouds FEW090 42.8 33.8 71% 41 29.94 0.0
06 23:55 W 3 10.00 Mostly Cloudy BKN090 44.6 33.8 66% 29.94 0.0
06 23:35 W 3 10.00 Overcast OVC090 46.4 33.8 62% 29.93 0.0
06 23:15 W 3 10.00 Overcast OVC090 46.4 35.6 66% 29.93 0.0
06 22:55 NW 2 10.00 Overcast OVC090 46.4 33.8 62% 29.93 0.0
06 22:35 W 3 10.00 Overcast FEW075 OVC090 48.2 32 54% 29.93 0.0
06 22:15 W 1 10.00 Overcast FEW075 OVC090 48.2 30.2 50% 29.93 0.0
06 21:55 NW 1 10.00 Overcast SCT070 OVC090 48.2 33.8 58% 29.92 0.0
06 21:35 W 2 10.00 Overcast FEW075 OVC090 48.2 33.8 58% 29.92 0.0
06 21:15 W 3 10.00 Overcast SCT080 OVC090 50 30.2 47% 29.92 0.0
06 20:55 W 3 10.00 Overcast OVC085 50 30.2 47% 29.91 0.0
06 20:35 W 6 10.00 Overcast OVC085 48.2 33.8 58% 46 29.91 0.0
06 20:15 W 6 10.00 Overcast SCT070 OVC085 48.2 33.8 58% 46 29.91 0.0
06 19:55 W 9 10.00 Overcast FEW070 OVC085 50 32 55.8 50.2 50% 47 29.91 0.0
06 19:35 Vrbl 7 10.00 Overcast OVC085 50 32 50% 48 29.91 0.0
06 19:15 W 14 10.00 Overcast FEW075 OVC085 51.8 30.2 44% 29.91 0.0
06 18:55 W 16 10.00 Overcast SCT075 OVC085 51.8 30.2 44% 29.91 0.0
06 18:35 W 13 G 18 10.00 Partly Cloudy FEW075 SCT085 53.6 30.2 41% 29.91 0.0
06 18:15 W 12 G 22 10.00 Partly Cloudy SCT070 SCT085 53.6 30.2 41% 29.91 0.0
06 17:55 NW 13 10.00 Partly Cloudy SCT070 53.6 28.4 38% 29.91 0.0
06 17:35 NW 16 G 23 10.00 Mostly Cloudy BKN075 53.6 28.4 38% 29.91 0.0
06 17:15 W 16 G 21 10.00 Mostly Cloudy BKN075 55.4 30.2 38% 29.91 0.0
06 16:55 W 16 G 22 10.00 Mostly Cloudy BKN075 53.6 30.2 41% 29.92 0.0
06 16:35 NW 12 G 21 10.00 Partly Cloudy SCT065 53.6 28.4 38% 29.92 0.0
06 16:15 NW 15 G 23 10.00 Mostly Cloudy BKN065 53.6 28.4 38% 29.92 0.0
06 15:55 W 12 10.00 Mostly Cloudy BKN065 53.6 30.2 41% 29.92 0.0
06 15:35 NW 15 10.00 Mostly Cloudy BKN065 53.6 30.2 41% 29.92 0.0
06 15:15 W 12 G 20 10.00 Partly Cloudy SCT065 55.4 32 41% 29.92 0.0
06 14:55 W 13 G 20 10.00 A Few Clouds FEW065 55.4 32 41% 29.92 0.0
06 14:35 W 12 G 21 10.00 A Few Clouds FEW065 55.4 32 41% 29.92 0.0
06 14:15 NW 12 G 18 10.00 Partly Cloudy SCT065 53.6 30.2 41% 29.92 0.0
Date Time (edt) Wind (mph) Vis. (mi.) Weather Sky Cond. Air Dwpt Max. Min. Relative Humidity Wind Chill (°F) Heat Index (°F) altimeter (in) sea level (mb) 1 hr 3 hr 6 hr
6 hour
Temperature (ºF) Pressure Precipitation (in)